createdAt,value
2017-11-04T00:00:15.372Z,1009.06
2017-11-04T00:01:15.400Z,1009.01
2017-11-04T00:02:15.312Z,1008.96
2017-11-04T00:03:15.301Z,1008.99
2017-11-04T00:04:15.253Z,1008.97
2017-11-04T00:05:15.316Z,1008.98
2017-11-04T00:06:15.199Z,1008.96
2017-11-04T00:07:15.222Z,1008.92
2017-11-04T00:08:15.136Z,1008.95
2017-11-04T00:09:15.136Z,1008.90
2017-11-04T00:10:15.084Z,1008.91
2017-11-04T00:11:15.145Z,1008.89
2017-11-04T00:12:15.021Z,1008.91
2017-11-04T00:13:15.054Z,1008.88
2017-11-04T00:14:14.972Z,1008.84
2017-11-04T00:15:14.968Z,1008.85
2017-11-04T00:16:14.909Z,1008.83
2017-11-04T00:17:14.978Z,1008.85
2017-11-04T00:18:14.858Z,1008.82
2017-11-04T00:19:14.886Z,1008.83
2017-11-04T00:20:14.800Z,1008.81
2017-11-04T00:21:14.798Z,1008.81
2017-11-04T00:22:14.747Z,1008.83
2017-11-04T00:23:14.812Z,1008.82
2017-11-04T00:24:14.685Z,1008.85
2017-11-04T00:25:14.719Z,1008.82
2017-11-04T00:26:14.628Z,1008.84
2017-11-04T00:27:14.631Z,1008.82
2017-11-04T00:28:14.567Z,1008.84
2017-11-04T00:29:14.642Z,1008.86
2017-11-04T00:30:14.513Z,1008.83
2017-11-04T00:31:14.552Z,1008.83
2017-11-04T00:32:14.458Z,1008.80
2017-11-04T00:33:14.462Z,1008.80
2017-11-04T00:34:14.397Z,1008.74
2017-11-04T00:35:14.477Z,1008.73
2017-11-04T00:36:14.343Z,1008.70
2017-11-04T00:37:14.388Z,1008.71
2017-11-04T00:38:14.286Z,1008.67
2017-11-04T00:39:14.295Z,1008.70
2017-11-04T00:40:14.228Z,1008.66
2017-11-04T00:41:14.328Z,1008.65
2017-11-04T00:42:14.172Z,1008.60
2017-11-04T00:43:14.219Z,1008.59
2017-11-04T00:44:14.112Z,1008.61
2017-11-04T00:45:14.132Z,1008.61
2017-11-04T00:46:14.055Z,1008.60
2017-11-04T00:47:14.141Z,1008.66
2017-11-04T00:48:14.002Z,1008.63
2017-11-04T00:49:14.050Z,1008.64
2017-11-04T00:50:13.950Z,1008.62
2017-11-04T00:51:13.963Z,1008.63
2017-11-04T00:52:13.891Z,1008.62
2017-11-04T00:53:13.873Z,1008.61
2017-11-04T00:54:13.828Z,1008.55
2017-11-04T00:55:13.887Z,1008.58
2017-11-04T00:56:13.772Z,1008.56
2017-11-04T00:57:13.796Z,1008.50
2017-11-04T00:58:13.716Z,1008.51
2017-11-04T00:59:13.709Z,1008.53
2017-11-04T01:00:13.661Z,1008.52
2017-11-04T01:01:13.821Z,1008.48
2017-11-04T01:02:13.606Z,1008.47
2017-11-04T01:03:13.629Z,1008.43
2017-11-04T01:04:13.545Z,1008.41
2017-11-04T01:05:13.543Z,1008.40
2017-11-04T01:06:13.487Z,1008.40
2017-11-04T01:07:13.559Z,1008.40
2017-11-04T01:08:13.428Z,1008.36
2017-11-04T01:09:13.459Z,1008.35
2017-11-04T01:10:13.373Z,1008.35
2017-11-04T01:11:13.370Z,1008.37
2017-11-04T01:12:13.314Z,1008.36
2017-11-04T01:13:13.378Z,1008.39
2017-11-04T01:14:13.259Z,1008.32
2017-11-04T01:15:13.290Z,1008.35
2017-11-04T01:16:13.203Z,1008.28
2017-11-04T01:17:13.197Z,1008.29
2017-11-04T01:18:13.145Z,1008.27
2017-11-04T01:19:13.222Z,1008.26
2017-11-04T01:20:13.089Z,1008.25
2017-11-04T01:21:13.126Z,1008.25
2017-11-04T01:22:13.028Z,1008.26
2017-11-04T01:23:13.035Z,1008.26
2017-11-04T01:24:12.974Z,1008.26
2017-11-04T01:25:13.049Z,1008.24
2017-11-04T01:26:12.912Z,1008.21
2017-11-04T01:27:12.957Z,1008.18
2017-11-04T01:28:12.864Z,1008.11
2017-11-04T01:29:12.864Z,1008.16
2017-11-04T01:30:12.819Z,1008.15
2017-11-04T01:31:12.877Z,1008.09
2017-11-04T01:32:12.746Z,1008.06
2017-11-04T01:33:12.787Z,1008.07
2017-11-04T01:34:12.687Z,1008.09
2017-11-04T01:35:12.694Z,1008.08
2017-11-04T01:36:12.632Z,1008.05
2017-11-04T01:37:12.709Z,1008.04
2017-11-04T01:38:12.575Z,1008.06
2017-11-04T01:39:12.617Z,1008.01
2017-11-04T01:40:12.512Z,1007.96
2017-11-04T01:41:12.531Z,1007.97
2017-11-04T01:42:12.470Z,1007.96
2017-11-04T01:43:12.544Z,1007.94
2017-11-04T01:44:12.404Z,1007.93
2017-11-04T01:45:12.449Z,1007.91
2017-11-04T01:46:12.350Z,1007.92
2017-11-04T01:47:12.362Z,1007.91
2017-11-04T01:48:12.294Z,1007.89
2017-11-04T01:49:12.273Z,1007.91
2017-11-04T01:50:12.230Z,1007.90
2017-11-04T01:51:12.285Z,1007.92
2017-11-04T01:52:12.173Z,1007.89
2017-11-04T01:53:12.194Z,1007.84
2017-11-04T01:54:12.118Z,1007.84
2017-11-04T01:55:12.107Z,1007.80
2017-11-04T01:56:12.061Z,1007.84
2017-11-04T01:57:12.115Z,1007.82
2017-11-04T01:58:12.006Z,1007.77
2017-11-04T01:59:12.027Z,1007.76
2017-11-04T02:00:11.941Z,1007.78
2017-11-04T02:01:11.936Z,1007.76
2017-11-04T02:02:11.891Z,1007.71
2017-11-04T02:03:11.955Z,1007.69
2017-11-04T02:04:11.841Z,1007.72
2017-11-04T02:05:11.859Z,1007.67
2017-11-04T02:06:11.774Z,1007.66
2017-11-04T02:07:11.770Z,1007.59
2017-11-04T02:08:11.717Z,1007.56
2017-11-04T02:09:11.784Z,1007.61
2017-11-04T02:10:11.659Z,1007.60
2017-11-04T02:11:11.691Z,1007.57
2017-11-04T02:12:11.608Z,1007.58
2017-11-04T02:13:11.606Z,1007.57
2017-11-04T02:14:11.581Z,1007.59
2017-11-04T02:15:11.621Z,1007.61
2017-11-04T02:16:11.492Z,1007.64
2017-11-04T02:17:11.532Z,1007.64
2017-11-04T02:18:11.436Z,1007.64
2017-11-04T02:19:11.442Z,1007.60
2017-11-04T02:20:11.374Z,1007.63
2017-11-04T02:21:11.454Z,1007.61
2017-11-04T02:22:11.318Z,1007.58
2017-11-04T02:23:11.360Z,1007.60
2017-11-04T02:24:11.261Z,1007.53
2017-11-04T02:25:11.282Z,1007.54
2017-11-04T02:26:11.200Z,1007.50
2017-11-04T02:27:11.279Z,1007.47
2017-11-04T02:28:11.145Z,1007.43
2017-11-04T02:29:11.192Z,1007.43
2017-11-04T02:30:11.093Z,1007.43
2017-11-04T02:31:11.102Z,1007.42
2017-11-04T02:32:11.034Z,1007.43
2017-11-04T02:33:11.110Z,1007.43
2017-11-04T02:34:10.977Z,1007.44
2017-11-04T02:35:11.024Z,1007.44
2017-11-04T02:36:10.918Z,1007.42
2017-11-04T02:37:10.934Z,1007.45
2017-11-04T02:38:10.858Z,1007.42
2017-11-04T02:39:10.846Z,1007.40
2017-11-04T02:40:10.802Z,1007.42
2017-11-04T02:41:10.855Z,1007.42
2017-11-04T02:42:10.749Z,1007.40
2017-11-04T02:43:10.764Z,1007.44
2017-11-04T02:44:10.698Z,1007.38
2017-11-04T02:45:10.678Z,1007.39
2017-11-04T02:46:10.632Z,1007.36
2017-11-04T02:47:11.612Z,1007.32
2017-11-04T02:48:10.572Z,1007.37
2017-11-04T02:49:10.598Z,1007.32
2017-11-04T02:50:10.522Z,1007.29
2017-11-04T02:51:10.510Z,1007.31
2017-11-04T02:52:10.459Z,1007.28
2017-11-04T02:53:10.524Z,1007.27
2017-11-04T02:54:10.408Z,1007.31
2017-11-04T02:55:10.432Z,1007.31
2017-11-04T02:56:10.348Z,1007.30
2017-11-04T02:57:10.344Z,1007.33
2017-11-04T02:58:10.290Z,1007.33
2017-11-04T02:59:10.353Z,1007.32
2017-11-04T03:00:10.233Z,1007.25
2017-11-04T03:01:10.266Z,1007.30
2017-11-04T03:02:10.177Z,1007.24
2017-11-04T03:03:10.175Z,1007.16
2017-11-04T03:04:10.115Z,1007.18
2017-11-04T03:05:10.187Z,1007.19
2017-11-04T03:06:10.065Z,1007.17
2017-11-04T03:07:10.097Z,1007.16
2017-11-04T03:08:10.005Z,1007.17
2017-11-04T03:09:10.007Z,1007.13
2017-11-04T03:10:09.947Z,1007.15
2017-11-04T03:11:10.018Z,1007.15
2017-11-04T03:12:09.882Z,1007.15
2017-11-04T03:13:09.930Z,1007.14
2017-11-04T03:14:09.830Z,1007.16
2017-11-04T03:15:09.839Z,1007.16
2017-11-04T03:16:09.776Z,1007.12
2017-11-04T03:17:09.853Z,1007.12
2017-11-04T03:18:09.713Z,1007.18
2017-11-04T03:19:09.763Z,1007.13
2017-11-04T03:20:09.664Z,1007.14
2017-11-04T03:21:09.672Z,1007.15
2017-11-04T03:22:09.610Z,1007.11
2017-11-04T03:23:09.685Z,1007.12
2017-11-04T03:24:09.540Z,1007.14
2017-11-04T03:25:09.596Z,1007.16
2017-11-04T03:26:09.489Z,1007.12
2017-11-04T03:27:09.505Z,1007.12
2017-11-04T03:28:09.428Z,1007.10
2017-11-04T03:29:09.411Z,1007.11
2017-11-04T03:30:09.371Z,1007.10
2017-11-04T03:31:09.427Z,1007.12
2017-11-04T03:32:09.317Z,1007.14
2017-11-04T03:33:09.338Z,1007.15
2017-11-04T03:34:09.259Z,1007.13
2017-11-04T03:35:09.246Z,1007.13
2017-11-04T03:36:09.201Z,1007.11
2017-11-04T03:37:09.262Z,1007.09
2017-11-04T03:38:09.141Z,1007.08
2017-11-04T03:39:09.172Z,1007.07
2017-11-04T03:40:09.088Z,1007.05
2017-11-04T03:41:09.083Z,1007.03
2017-11-04T03:42:09.028Z,1007.05
2017-11-04T03:43:09.096Z,1007.07
2017-11-04T03:44:08.967Z,1007.05
2017-11-04T03:45:09.015Z,1007.08
2017-11-04T03:46:08.913Z,1007.04
2017-11-04T03:47:08.916Z,1006.96
2017-11-04T03:48:08.853Z,1007.00
2017-11-04T03:49:08.928Z,1007.00
2017-11-04T03:50:08.797Z,1006.97
2017-11-04T03:51:08.838Z,1007.01
2017-11-04T03:52:08.742Z,1006.96
2017-11-04T03:53:08.749Z,1006.98
2017-11-04T03:54:08.681Z,1006.98
2017-11-04T03:55:08.759Z,1006.94
2017-11-04T03:56:08.666Z,1006.95
2017-11-04T03:57:08.673Z,1006.93
2017-11-04T03:58:08.572Z,1006.95
2017-11-04T03:59:08.585Z,1006.89
2017-11-04T04:00:08.514Z,1006.91
2017-11-04T04:01:08.593Z,1006.89
2017-11-04T04:02:08.456Z,1006.86
2017-11-04T04:03:08.526Z,1006.89
2017-11-04T04:04:08.395Z,1006.86
2017-11-04T04:05:08.414Z,1006.85
2017-11-04T04:06:08.338Z,1006.84
2017-11-04T04:07:08.321Z,1006.78
2017-11-04T04:08:08.281Z,1006.79
2017-11-04T04:09:08.411Z,1006.74
2017-11-04T04:10:08.224Z,1006.79
2017-11-04T04:11:08.269Z,1006.79
2017-11-04T04:12:08.168Z,1006.77
2017-11-04T04:13:08.163Z,1006.78
2017-11-04T04:14:08.108Z,1006.76
2017-11-04T04:15:08.166Z,1006.73
2017-11-04T04:16:08.056Z,1006.75
2017-11-04T04:17:08.071Z,1006.67
2017-11-04T04:18:07.995Z,1006.70
2017-11-04T04:19:07.983Z,1006.65
2017-11-04T04:20:07.932Z,1006.67
2017-11-04T04:21:07.994Z,1006.63
2017-11-04T04:22:07.877Z,1006.63
2017-11-04T04:23:07.912Z,1006.57
2017-11-04T04:24:07.826Z,1006.61
2017-11-04T04:25:07.815Z,1006.58
2017-11-04T04:26:07.769Z,1006.59
2017-11-04T04:27:07.830Z,1006.57
2017-11-04T04:28:07.704Z,1006.54
2017-11-04T04:29:07.740Z,1006.54
2017-11-04T04:30:07.644Z,1006.52
2017-11-04T04:31:07.648Z,1006.54
2017-11-04T04:32:07.590Z,1006.45
2017-11-04T04:33:07.663Z,1006.50
2017-11-04T04:34:07.536Z,1006.48
2017-11-04T04:35:07.596Z,1006.51
2017-11-04T04:36:07.475Z,1006.49
2017-11-04T04:37:07.483Z,1006.50
2017-11-04T04:38:07.426Z,1006.49
2017-11-04T04:39:07.497Z,1006.49
2017-11-04T04:40:07.364Z,1006.43
2017-11-04T04:41:07.406Z,1006.42
2017-11-04T04:42:07.307Z,1006.39
2017-11-04T04:43:07.316Z,1006.35
2017-11-04T04:44:07.249Z,1006.39
2017-11-04T04:45:07.331Z,1006.34
2017-11-04T04:46:07.193Z,1006.41
2017-11-04T04:47:07.343Z,1006.37
2017-11-04T04:48:07.131Z,1006.34
2017-11-04T04:49:07.147Z,1006.31
2017-11-04T04:50:07.080Z,1006.24
2017-11-04T04:51:07.059Z,1006.28
2017-11-04T04:52:07.017Z,1006.28
2017-11-04T04:53:07.073Z,1006.28
2017-11-04T04:54:06.965Z,1006.28
2017-11-04T04:55:06.983Z,1006.26
2017-11-04T04:56:06.899Z,1006.23
2017-11-04T04:57:06.887Z,1006.23
2017-11-04T04:58:06.849Z,1006.23
2017-11-04T04:59:06.901Z,1006.23
2017-11-04T05:00:06.788Z,1006.16
2017-11-04T05:01:06.812Z,1006.05
2017-11-04T05:02:06.730Z,1006.05
2017-11-04T05:03:06.721Z,1006.04
2017-11-04T05:04:06.674Z,1006.07
2017-11-04T05:05:06.743Z,1006.09
2017-11-04T05:06:06.617Z,1006.09
2017-11-04T05:07:06.646Z,1006.06
2017-11-04T05:08:06.559Z,1006.09
2017-11-04T05:09:06.557Z,1006.08
2017-11-04T05:10:06.503Z,1006.09
2017-11-04T05:11:06.572Z,1006.13
2017-11-04T05:12:06.444Z,1006.17
2017-11-04T05:13:06.481Z,1006.10
2017-11-04T05:14:06.387Z,1006.07
2017-11-04T05:15:06.395Z,1006.08
2017-11-04T05:16:06.324Z,1006.08
2017-11-04T05:17:06.400Z,1006.04
2017-11-04T05:18:06.273Z,1006.02
2017-11-04T05:19:06.312Z,1006.04
2017-11-04T05:20:06.217Z,1006.07
2017-11-04T05:21:06.220Z,1006.10
2017-11-04T05:22:06.159Z,1006.08
2017-11-04T05:23:06.233Z,1006.06
2017-11-04T05:24:06.109Z,1006.08
2017-11-04T05:25:06.144Z,1006.09
2017-11-04T05:26:06.042Z,1006.03
2017-11-04T05:27:06.054Z,1006.06
2017-11-04T05:28:05.992Z,1006.07
2017-11-04T05:29:06.066Z,1006.05
2017-11-04T05:30:05.925Z,1005.97
2017-11-04T05:31:05.974Z,1005.96
2017-11-04T05:32:05.866Z,1005.96
2017-11-04T05:33:05.884Z,1005.94
2017-11-04T05:34:05.807Z,1005.96
2017-11-04T05:35:05.795Z,1005.94
2017-11-04T05:36:05.755Z,1006.00
2017-11-04T05:37:05.812Z,1005.97
2017-11-04T05:38:05.698Z,1005.92
2017-11-04T05:39:05.719Z,1005.85
2017-11-04T05:40:05.651Z,1005.83
2017-11-04T05:41:05.731Z,1005.81
2017-11-04T05:42:05.580Z,1005.76
2017-11-04T05:43:05.648Z,1005.75
2017-11-04T05:44:05.527Z,1005.78
2017-11-04T05:45:05.550Z,1005.76
2017-11-04T05:46:05.469Z,1005.77
2017-11-04T05:47:05.462Z,1005.79
2017-11-04T05:48:05.407Z,1005.78
2017-11-04T05:49:05.470Z,1005.78
2017-11-04T05:50:05.351Z,1005.71
2017-11-04T05:51:05.381Z,1005.70
2017-11-04T05:52:05.298Z,1005.69
2017-11-04T05:53:05.302Z,1005.66
2017-11-04T05:54:05.235Z,1005.64
2017-11-04T05:55:05.307Z,1005.61
2017-11-04T05:56:05.178Z,1005.62
2017-11-04T05:57:05.214Z,1005.58
2017-11-04T05:58:05.121Z,1005.54
2017-11-04T05:59:05.126Z,1005.57
2017-11-04T06:00:05.067Z,1005.65
2017-11-04T06:01:05.139Z,1005.69
2017-11-04T06:02:05.014Z,1005.69
2017-11-04T06:03:05.049Z,1005.68
2017-11-04T06:04:04.950Z,1005.65
2017-11-04T06:05:04.960Z,1005.64
2017-11-04T06:06:04.895Z,1005.65
2017-11-04T06:07:04.979Z,1005.65
2017-11-04T06:08:04.839Z,1005.71
2017-11-04T06:09:04.887Z,1005.70
2017-11-04T06:10:04.775Z,1005.74
2017-11-04T06:11:04.794Z,1005.74
2017-11-04T06:12:04.721Z,1005.68
2017-11-04T06:13:04.804Z,1005.72
2017-11-04T06:14:04.663Z,1005.78
2017-11-04T06:15:04.714Z,1005.83
2017-11-04T06:16:04.605Z,1005.88
2017-11-04T06:17:04.623Z,1005.94
2017-11-04T06:18:04.551Z,1005.93
2017-11-04T06:19:04.533Z,1005.94
2017-11-04T06:20:04.492Z,1005.92
2017-11-04T06:21:04.551Z,1005.94
2017-11-04T06:22:04.440Z,1005.95
2017-11-04T06:23:04.457Z,1005.97
2017-11-04T06:24:04.377Z,1006.00
2017-11-04T06:25:04.358Z,1005.97
2017-11-04T06:26:04.321Z,1005.97
2017-11-04T06:27:04.382Z,1006.00
2017-11-04T06:28:04.266Z,1006.00
2017-11-04T06:29:04.287Z,1006.01
2017-11-04T06:30:04.209Z,1006.02
2017-11-04T06:31:04.203Z,1006.04
2017-11-04T06:32:04.154Z,1006.04
2017-11-04T06:33:04.209Z,1006.05
2017-11-04T06:34:04.092Z,1006.01
2017-11-04T06:35:04.132Z,1005.99
2017-11-04T06:36:04.030Z,1005.95
2017-11-04T06:37:04.032Z,1005.97
2017-11-04T06:38:03.977Z,1005.94
2017-11-04T06:39:04.039Z,1005.92
2017-11-04T06:40:03.918Z,1005.86
2017-11-04T06:41:03.954Z,1005.88
2017-11-04T06:42:03.864Z,1005.82
2017-11-04T06:43:03.865Z,1005.84
2017-11-04T06:44:03.806Z,1005.85
2017-11-04T06:45:03.875Z,1005.86
2017-11-04T06:46:03.746Z,1005.82
2017-11-04T06:47:03.786Z,1005.84
2017-11-04T06:48:03.690Z,1005.83
2017-11-04T06:49:03.693Z,1005.74
2017-11-04T06:50:03.636Z,1005.76
2017-11-04T06:51:03.708Z,1005.74
2017-11-04T06:52:03.574Z,1005.69
2017-11-04T06:53:03.626Z,1005.71
2017-11-04T06:54:03.523Z,1005.70
2017-11-04T06:55:03.533Z,1005.68
2017-11-04T06:56:03.459Z,1005.67
2017-11-04T06:57:03.545Z,1005.70
2017-11-04T06:58:03.410Z,1005.65
2017-11-04T06:59:03.454Z,1005.67
2017-11-04T07:00:03.351Z,1005.67
2017-11-04T07:01:03.368Z,1005.66
2017-11-04T07:02:03.292Z,1005.61
2017-11-04T07:03:03.380Z,1005.64
2017-11-04T07:04:03.309Z,1005.60
2017-11-04T07:05:03.289Z,1005.58
2017-11-04T07:06:03.176Z,1005.54
2017-11-04T07:07:03.204Z,1005.54
2017-11-04T07:08:03.121Z,1005.56
2017-11-04T07:09:03.116Z,1005.52
2017-11-04T07:10:03.065Z,1005.55
2017-11-04T07:11:03.114Z,1005.55
2017-11-04T07:12:03.010Z,1005.55
2017-11-04T07:13:03.032Z,1005.55
2017-11-04T07:14:02.956Z,1005.53
2017-11-04T07:15:02.941Z,1005.57
2017-11-04T07:16:02.893Z,1005.56
2017-11-04T07:17:02.951Z,1005.56
2017-11-04T07:18:03.061Z,1005.52
2017-11-04T07:19:02.856Z,1005.50
2017-11-04T07:20:02.780Z,1005.50
2017-11-04T07:21:02.768Z,1005.48
2017-11-04T07:22:02.773Z,1005.44
2017-11-04T07:23:02.692Z,1005.40
2017-11-04T07:24:02.687Z,1005.38
2017-11-04T07:25:02.638Z,1005.36
2017-11-04T07:26:02.699Z,1005.38
2017-11-04T07:27:02.583Z,1005.42
2017-11-04T07:28:02.608Z,1005.40
2017-11-04T07:29:02.527Z,1005.38
2017-11-04T07:30:02.520Z,1005.39
2017-11-04T07:31:02.468Z,1005.39
2017-11-04T07:32:02.531Z,1005.41
2017-11-04T07:33:02.416Z,1005.39
2017-11-04T07:34:02.440Z,1005.35
2017-11-04T07:35:02.355Z,1005.34
2017-11-04T07:36:02.352Z,1005.39
2017-11-04T07:37:02.297Z,1005.40
2017-11-04T07:38:02.364Z,1005.38
2017-11-04T07:39:02.239Z,1005.36
2017-11-04T07:40:02.281Z,1005.33
2017-11-04T07:41:02.184Z,1005.30
2017-11-04T07:42:02.185Z,1005.29
2017-11-04T07:43:02.131Z,1005.31
2017-11-04T07:44:02.195Z,1005.28
2017-11-04T07:45:02.079Z,1005.29
2017-11-04T07:46:02.105Z,1005.29
2017-11-04T07:47:02.017Z,1005.34
2017-11-04T07:48:02.016Z,1005.29
2017-11-04T07:49:01.962Z,1005.35
2017-11-04T07:50:02.049Z,1005.34
2017-11-04T07:51:01.912Z,1005.31
2017-11-04T07:52:01.950Z,1005.29
2017-11-04T07:53:01.846Z,1005.32
2017-11-04T07:54:01.856Z,1005.28
2017-11-04T07:55:01.796Z,1005.28
2017-11-04T07:56:01.857Z,1005.25
2017-11-04T07:57:01.734Z,1005.22
2017-11-04T07:58:01.769Z,1005.16
2017-11-04T07:59:01.689Z,1005.18
2017-11-04T08:00:01.679Z,1005.19
2017-11-04T08:01:01.622Z,1005.20
2017-11-04T08:02:01.691Z,1005.18
2017-11-04T08:03:01.580Z,1005.13
2017-11-04T08:04:01.604Z,1005.21
2017-11-04T08:05:01.510Z,1005.19
2017-11-04T08:06:01.515Z,1005.19
2017-11-04T08:07:01.457Z,1005.23
2017-11-04T08:08:01.525Z,1005.20
2017-11-04T08:09:01.394Z,1005.22
2017-11-04T08:10:01.438Z,1005.20
2017-11-04T08:11:01.342Z,1005.22
2017-11-04T08:12:01.347Z,1005.19
2017-11-04T08:13:01.283Z,1005.17
2017-11-04T08:14:01.362Z,1005.14
2017-11-04T08:15:01.230Z,1005.17
2017-11-04T08:16:01.273Z,1005.15
2017-11-04T08:17:01.179Z,1005.19
2017-11-04T08:18:01.180Z,1005.18
2017-11-04T08:19:01.119Z,1005.21
2017-11-04T08:20:01.201Z,1005.20
2017-11-04T08:21:01.068Z,1005.21
2017-11-04T08:22:01.104Z,1005.19
2017-11-04T08:23:01.014Z,1005.13
2017-11-04T08:24:01.020Z,1005.12
2017-11-04T08:25:00.953Z,1005.08
2017-11-04T08:26:01.033Z,1005.08
2017-11-04T08:27:00.896Z,1005.10
2017-11-04T08:28:00.935Z,1005.10
2017-11-04T08:29:00.841Z,1005.06
2017-11-04T08:30:00.843Z,1005.07
2017-11-04T08:31:00.802Z,1005.08
2017-11-04T08:32:00.871Z,1005.08
2017-11-04T08:33:00.733Z,1005.07
2017-11-04T08:34:00.789Z,1005.05
2017-11-04T08:35:00.680Z,1005.02
2017-11-04T08:36:00.678Z,1005.06
2017-11-04T08:37:00.626Z,1005.06
2017-11-04T08:38:00.686Z,1005.03
2017-11-04T08:39:00.569Z,1005.04
2017-11-04T08:40:00.595Z,1004.99
2017-11-04T08:41:00.524Z,1004.98
2017-11-04T08:42:00.510Z,1004.97
2017-11-04T08:43:00.459Z,1004.92
2017-11-04T08:44:00.524Z,1004.95
2017-11-04T08:45:00.411Z,1004.95
2017-11-04T08:46:00.429Z,1004.96
2017-11-04T08:47:00.358Z,1004.98
2017-11-04T08:48:00.340Z,1004.91
2017-11-04T08:49:00.298Z,1004.92
2017-11-04T08:50:00.359Z,1004.91
2017-11-04T08:51:00.240Z,1004.93
2017-11-04T08:52:00.267Z,1004.94
2017-11-04T08:53:00.193Z,1004.92
2017-11-04T08:54:00.283Z,1004.86
2017-11-04T08:55:00.137Z,1004.83
2017-11-04T08:56:00.186Z,1004.81
2017-11-04T08:57:00.083Z,1004.85
2017-11-04T08:58:00.099Z,1004.84
2017-11-04T08:59:00.029Z,1004.82
2017-11-04T09:00:00.110Z,1004.82
2017-11-04T09:00:59.980Z,1004.80
2017-11-04T09:02:00.021Z,1004.83
2017-11-04T09:02:59.919Z,1004.96
2017-11-04T09:03:59.929Z,1005.13
2017-11-04T09:04:59.869Z,1005.16
2017-11-04T09:05:59.940Z,1005.18
2017-11-04T09:06:59.817Z,1005.15
2017-11-04T09:07:59.875Z,1005.16
2017-11-04T09:08:59.768Z,1005.17
2017-11-04T09:09:59.761Z,1005.23
2017-11-04T09:10:59.721Z,1005.26
2017-11-04T09:11:59.773Z,1005.26
2017-11-04T09:12:59.675Z,1005.24
2017-11-04T09:13:59.683Z,1005.27
2017-11-04T09:14:59.628Z,1005.18
2017-11-04T09:15:59.698Z,1005.21
2017-11-04T09:16:59.584Z,1005.19
2017-11-04T09:17:59.609Z,1004.94
2017-11-04T09:18:59.540Z,1004.88
2017-11-04T09:19:59.622Z,1004.77
2017-11-04T09:20:59.505Z,1004.77
2017-11-04T09:21:59.534Z,1004.74
2017-11-04T09:22:59.457Z,1004.75
2017-11-04T09:23:59.542Z,1005.09
2017-11-04T09:24:59.419Z,1004.92
2017-11-04T09:25:59.456Z,1005.00
2017-11-04T09:26:59.375Z,1005.09
2017-11-04T09:27:59.470Z,1005.04
2017-11-04T09:28:59.332Z,1005.08
2017-11-04T09:29:59.376Z,1005.03
2017-11-04T09:30:59.290Z,1005.04
2017-11-04T09:31:59.287Z,1004.97
2017-11-04T09:32:59.255Z,1005.00
2017-11-04T09:33:59.298Z,1005.00
2017-11-04T09:34:59.213Z,1004.94
2017-11-04T09:35:59.311Z,1004.96
2017-11-04T09:36:59.179Z,1004.95
2017-11-04T09:37:59.221Z,1004.95
2017-11-04T09:38:59.143Z,1005.07
2017-11-04T09:39:59.232Z,1004.78
2017-11-04T09:40:59.111Z,1004.97
2017-11-04T09:41:59.143Z,1004.70
2017-11-04T09:42:59.072Z,1005.15
2017-11-04T09:43:59.153Z,1005.26
2017-11-04T09:44:59.051Z,1005.27
2017-11-04T09:45:59.065Z,1005.24
2017-11-04T09:46:59.008Z,1005.28
2017-11-04T09:47:59.076Z,1005.27
2017-11-04T09:48:58.973Z,1005.22
2017-11-04T09:49:58.994Z,1005.27
2017-11-04T09:50:58.953Z,1005.28
2017-11-04T09:51:59.007Z,1005.24
2017-11-04T09:52:58.966Z,1005.11
2017-11-04T09:53:59.021Z,1005.02
2017-11-04T09:54:58.890Z,1005.25
2017-11-04T09:55:58.920Z,1005.32
2017-11-04T09:56:58.858Z,1005.28
2017-11-04T09:57:58.936Z,1005.24
2017-11-04T09:58:58.838Z,1005.41
2017-11-04T09:59:58.849Z,1005.39
2017-11-04T10:00:58.801Z,1005.38
2017-11-04T10:01:58.860Z,1005.20
2017-11-04T10:02:58.779Z,1005.12
2017-11-04T10:03:58.879Z,1005.09
2017-11-04T10:04:58.752Z,1005.17
2017-11-04T10:05:58.787Z,1005.25
2017-11-04T10:06:58.740Z,1005.27
2017-11-04T10:07:58.831Z,1005.31
2017-11-04T10:08:58.701Z,1005.39
2017-11-04T10:09:58.703Z,1005.35
2017-11-04T10:10:58.675Z,1005.35
2017-11-04T10:11:58.712Z,1005.35
2017-11-04T10:12:58.651Z,1005.32
2017-11-04T10:13:59.648Z,1005.26
2017-11-04T10:14:58.628Z,1005.26
2017-11-04T10:15:58.637Z,1005.21
2017-11-04T10:16:58.603Z,1005.18
2017-11-04T10:17:58.648Z,1005.12
2017-11-04T10:18:58.585Z,1005.16
2017-11-04T10:19:58.660Z,1005.12
2017-11-04T10:20:58.556Z,1005.11
2017-11-04T10:21:58.570Z,1005.07
2017-11-04T10:22:58.531Z,1005.06
2017-11-04T10:23:58.581Z,1005.11
2017-11-04T10:24:58.512Z,1005.05
2017-11-04T10:25:58.593Z,1005.14
2017-11-04T10:26:58.489Z,1005.08
2017-11-04T10:27:58.506Z,1005.12
2017-11-04T10:28:58.466Z,1005.19
2017-11-04T10:29:58.517Z,1005.16
2017-11-04T10:30:58.444Z,1005.15
2017-11-04T10:31:58.438Z,1005.16
2017-11-04T10:32:58.425Z,1005.08
2017-11-04T10:33:58.440Z,1004.58
2017-11-04T10:34:58.403Z,1004.72
2017-11-04T10:35:58.468Z,1004.58
2017-11-04T10:36:58.389Z,1004.87
2017-11-04T10:37:58.369Z,1004.99
2017-11-04T10:38:58.358Z,1004.75
2017-11-04T10:39:58.386Z,1004.88
2017-11-04T10:40:58.340Z,1004.83
2017-11-04T10:41:58.397Z,1004.91
2017-11-04T10:42:58.323Z,1004.89
2017-11-04T10:43:58.435Z,1004.92
2017-11-04T10:44:58.301Z,1004.98
2017-11-04T10:45:58.325Z,1004.91
2017-11-04T10:46:58.282Z,1004.91
2017-11-04T10:47:58.339Z,1004.97
2017-11-04T10:48:58.258Z,1004.98
2017-11-04T10:49:58.356Z,1004.97
2017-11-04T10:50:58.235Z,1004.96
2017-11-04T10:51:58.264Z,1004.89
2017-11-04T10:52:58.217Z,1004.88
2017-11-04T10:53:58.281Z,1004.88
2017-11-04T10:54:58.198Z,1004.86
2017-11-04T10:55:58.290Z,1004.79
2017-11-04T10:56:58.202Z,1004.79
2017-11-04T10:57:58.305Z,1004.64
2017-11-04T10:58:58.161Z,1004.79
2017-11-04T10:59:58.215Z,1004.76
2017-11-04T11:00:58.143Z,1004.62
2017-11-04T11:01:58.233Z,1004.74
2017-11-04T11:02:58.125Z,1004.82
2017-11-04T11:03:58.137Z,1004.74
2017-11-04T11:04:58.109Z,1004.70
2017-11-04T11:05:58.162Z,1004.77
2017-11-04T11:06:58.093Z,1004.74
2017-11-04T11:07:58.078Z,1004.75
2017-11-04T11:08:58.065Z,1004.73
2017-11-04T11:09:58.216Z,1004.80
2017-11-04T11:10:58.046Z,1004.82
2017-11-04T11:11:58.041Z,1004.80
2017-11-04T11:12:58.104Z,1004.73
2017-11-04T11:13:58.020Z,1004.74
2017-11-04T11:14:58.117Z,1004.63
2017-11-04T11:15:57.995Z,1004.62
2017-11-04T11:16:57.997Z,1004.53
2017-11-04T11:17:58.041Z,1004.55
2017-11-04T11:18:57.969Z,1004.62
2017-11-04T11:19:58.055Z,1004.62
2017-11-04T11:20:57.952Z,1004.62
2017-11-04T11:21:58.072Z,1004.60
2017-11-04T11:22:57.936Z,1004.58
2017-11-04T11:23:58.084Z,1004.56
2017-11-04T11:24:57.914Z,1004.48
2017-11-04T11:25:57.915Z,1004.47
2017-11-04T11:26:57.901Z,1004.43
2017-11-04T11:27:58.019Z,1004.44
2017-11-04T11:28:58.411Z,1004.42
2017-11-04T11:29:58.022Z,1004.42
2017-11-04T11:30:57.870Z,1004.36
2017-11-04T11:31:57.861Z,1004.35
2017-11-04T11:32:57.845Z,1004.38
2017-11-04T11:33:57.846Z,1004.36
2017-11-04T11:34:57.956Z,1004.44
2017-11-04T11:35:57.833Z,1004.46
2017-11-04T11:36:57.967Z,1004.50
2017-11-04T11:37:57.804Z,1004.48
2017-11-04T11:38:57.803Z,1004.53
2017-11-04T11:39:57.792Z,1004.55
2017-11-04T11:40:57.894Z,1004.53
2017-11-04T11:41:57.775Z,1004.56
2017-11-04T11:42:57.906Z,1004.57
2017-11-04T11:43:57.755Z,1004.57
2017-11-04T11:44:57.921Z,1004.63
2017-11-04T11:45:57.745Z,1004.68
2017-11-04T11:46:57.984Z,1004.77
2017-11-04T11:47:57.726Z,1004.75
2017-11-04T11:48:57.900Z,1004.79
2017-11-04T11:49:57.730Z,1004.86
2017-11-04T11:50:57.861Z,1004.93
2017-11-04T11:51:57.696Z,1004.92
2017-11-04T11:52:57.771Z,1004.98
2017-11-04T11:53:57.688Z,1005.06
2017-11-04T11:54:57.782Z,1005.03
2017-11-04T11:55:57.664Z,1005.19
2017-11-04T11:56:57.798Z,1005.25
2017-11-04T11:57:57.650Z,1005.36
2017-11-04T11:58:57.814Z,1005.46
2017-11-04T11:59:57.637Z,1005.55
2017-11-04T12:00:57.644Z,1005.51
2017-11-04T12:01:57.732Z,1005.54
2017-11-04T12:02:57.612Z,1005.42
2017-11-04T12:03:57.750Z,1005.37
2017-11-04T12:04:57.606Z,1005.36